PWSweather.com
Personal Weather Stations
Station Observations
KMNGREYC2
Grey Cloud Island, Grey Cloud Island, MN 55071

Grey Cloud IslandGrey Cloud Island, MN 55071

Lat: 44.799333, Lon: -92.987851

Elevation: 700

Station Type: Davis VP2

www.jagielski.com/weather/conditions.htm

High Low Average
Temperature 76.5°F24.7°C 59.6°F15.3°C 67.3°F19.6°C
Dew Point 73.4°F23.0°C 58.5°F14.7°C 65.1°F18.4°C
Winds 5.0 mph 8.0 kmh Calm Calm Calm WSWCalm WSW
Wind Gusts 23.0 mph37.0 kmh -- 4.0 mph6.4 kmh
Humidity 98% 84% 93%
Pressure 29.95 in1014.2 mb 29.59 in1002.0 mb -
Precipitation 0.00 in0.0 mm - -
Hour Temp Dew Point Humidity Winds Wind Gusts Pressure Precip Precip Rate Daily Precip Total
12:00 AM 76.5°F24.7°C 73.4°F23.0°C 90% Calm Calm 2.0 mph3.2 kmh 29.63 in1003.4 mb 0.00 in0.0 mm 0.00 in0.0 mm 0.00 in0.0 mm
12:15 AM 76.2°F24.6°C 73.1°F22.8°C 90% Calm Calm 1.0 mph1.6 kmh 29.64 in1003.7 mb 0.00 in0.0 mm 0.00 in0.0 mm 0.00 in0.0 mm
12:30 AM 75.7°F24.3°C 72.6°F22.6°C 90% Calm Calm 1.0 mph1.6 kmh 29.64 in1003.7 mb 0.00 in0.0 mm 0.00 in0.0 mm 0.00 in0.0 mm
12:45 AM 75.3°F24.1°C 72.2°F22.3°C 90% Calm Calm -- 29.64 in1003.7 mb 0.00 in0.0 mm 0.00 in0.0 mm 0.00 in0.0 mm
01:00 AM 74.8°F23.8°C 71.7°F22.1°C 90% Calm Calm -- 29.64 in1003.7 mb 0.00 in0.0 mm 0.00 in0.0 mm 0.00 in0.0 mm
01:15 AM 74.2°F23.4°C 71.1°F21.7°C 90% Calm Calm 1.0 mph1.6 kmh 29.64 in1003.7 mb 0.00 in0.0 mm 0.00 in0.0 mm 0.00 in0.0 mm
01:30 AM 73.8°F23.2°C 71.0°F21.7°C 91% Calm Calm 1.0 mph1.6 kmh 29.65 in1004.1 mb 0.00 in0.0 mm 0.00 in0.0 mm 0.00 in0.0 mm
01:45 AM 73.3°F22.9°C 70.5°F21.4°C 91% Calm Calm -- 29.65 in1004.1 mb 0.00 in0.0 mm 0.00 in0.0 mm 0.00 in0.0 mm
02:00 AM 72.9°F22.7°C 70.1°F21.2°C 91% Calm Calm -- 29.65 in1004.1 mb 0.00 in0.0 mm 0.00 in0.0 mm 0.00 in0.0 mm
02:15 AM 72.5°F22.5°C 70.1°F21.2°C 92% Calm Calm -- 29.65 in1004.1 mb 0.00 in0.0 mm 0.00 in0.0 mm 0.00 in0.0 mm
02:30 AM 72.1°F22.3°C 69.7°F20.9°C 92% Calm Calm -- 29.65 in1004.1 mb 0.00 in0.0 mm 0.00 in0.0 mm 0.00 in0.0 mm
02:45 AM 71.7°F22.1°C 69.3°F20.7°C 92% Calm Calm -- 29.65 in1004.1 mb 0.00 in0.0 mm 0.00 in0.0 mm 0.00 in0.0 mm
03:00 AM 71.5°F21.9°C 69.4°F20.8°C 93% Calm Calm -- 29.65 in1004.1 mb 0.00 in0.0 mm 0.00 in0.0 mm 0.00 in0.0 mm
03:15 AM 71.2°F21.8°C 69.1°F20.6°C 93% Calm Calm -- 29.65 in1004.1 mb 0.00 in0.0 mm 0.00 in0.0 mm 0.00 in0.0 mm
03:30 AM 71.0°F21.7°C 68.9°F20.5°C 93% Calm Calm -- 29.65 in1004.1 mb 0.00 in0.0 mm 0.00 in0.0 mm 0.00 in0.0 mm
03:45 AM 70.9°F21.6°C 69.1°F20.6°C 94% Calm Calm 1.0 mph1.6 kmh 29.64 in1003.7 mb 0.00 in0.0 mm 0.00 in0.0 mm 0.00 in0.0 mm
04:00 AM 70.8°F21.6°C 69.0°F20.6°C 94% Calm Calm 2.0 mph3.2 kmh 29.65 in1004.1 mb 0.00 in0.0 mm 0.00 in0.0 mm 0.00 in0.0 mm
04:15 AM 70.8°F21.6°C 69.3°F20.7°C 95% Calm Calm 2.0 mph3.2 kmh 29.66 in1004.4 mb 0.00 in0.0 mm 0.00 in0.0 mm 0.00 in0.0 mm
04:30 AM 70.9°F21.6°C 69.4°F20.8°C 95% 2.0 mph NNW3.2 kmh NNW 3.0 mph4.8 kmh 29.67 in1004.7 mb 0.00 in0.0 mm 0.00 in0.0 mm 0.00 in0.0 mm
04:45 AM 70.9°F21.6°C 69.4°F20.8°C 95% Calm Calm 2.0 mph3.2 kmh 29.68 in1005.1 mb 0.00 in0.0 mm 0.00 in0.0 mm 0.00 in0.0 mm
05:00 AM 70.8°F21.6°C 69.3°F20.7°C 95% Calm Calm 3.0 mph4.8 kmh 29.68 in1005.1 mb 0.00 in0.0 mm 0.00 in0.0 mm 0.00 in0.0 mm
05:15 AM 70.8°F21.6°C 69.0°F20.6°C 94% Calm Calm 2.0 mph3.2 kmh 29.67 in1004.7 mb 0.00 in0.0 mm 0.00 in0.0 mm 0.00 in0.0 mm
05:30 AM 70.7°F21.5°C 68.9°F20.5°C 94% Calm Calm 5.0 mph8.0 kmh 29.66 in1004.4 mb 0.00 in0.0 mm 0.00 in0.0 mm 0.00 in0.0 mm
05:45 AM 70.7°F21.5°C 68.9°F20.5°C 94% Calm Calm 4.0 mph6.4 kmh 29.64 in1003.7 mb 0.00 in0.0 mm 0.00 in0.0 mm 0.00 in0.0 mm
06:00 AM 70.8°F21.6°C 68.7°F20.4°C 93% Calm Calm 5.0 mph8.0 kmh 29.63 in1003.4 mb 0.00 in0.0 mm 0.00 in0.0 mm 0.00 in0.0 mm
06:15 AM 71.2°F21.8°C 69.1°F20.6°C 93% 1.0 mph NE1.6 kmh NE 5.0 mph8.0 kmh 29.66 in1004.4 mb 0.00 in0.0 mm 0.00 in0.0 mm 0.00 in0.0 mm
06:30 AM 71.6°F22.0°C 68.8°F20.4°C 91% 4.0 mph NNE6.4 kmh NNE 8.0 mph12.9 kmh 29.68 in1005.1 mb 0.00 in0.0 mm 0.00 in0.0 mm 0.00 in0.0 mm
06:45 AM 71.6°F22.0°C 67.5°F19.7°C 87% 5.0 mph S8.0 kmh S 9.0 mph14.5 kmh 29.64 in1003.7 mb 0.00 in0.0 mm 0.00 in0.0 mm 0.00 in0.0 mm
07:00 AM 71.5°F21.9°C 66.8°F19.3°C 85% 4.0 mph NW6.4 kmh NW 12.0 mph19.3 kmh 29.69 in1005.4 mb 0.00 in0.0 mm 0.00 in0.0 mm 0.00 in0.0 mm
07:15 AM 71.3°F21.8°C 66.2°F19.0°C 84% Calm Calm 6.0 mph9.7 kmh 29.71 in1006.1 mb 0.00 in0.0 mm 0.00 in0.0 mm 0.00 in0.0 mm
07:30 AM 70.5°F21.4°C 66.5°F19.2°C 87% 4.0 mph SSW6.4 kmh SSW 7.0 mph11.3 kmh 29.74 in1007.1 mb 0.15 in3.8 mm 0.60 in15.2 mm 0.15 in3.8 mm
07:45 AM 68.3°F20.2°C 65.3°F18.5°C 90% Calm Calm 6.0 mph9.7 kmh 29.83 in1010.2 mb 0.85 in21.6 mm 2.80 in71.1 mm 0.85 in21.6 mm
08:00 AM 66.8°F19.3°C 64.4°F18.0°C 92% Calm Calm 7.0 mph11.3 kmh 29.90 in1012.5 mb 0.99 in25.1 mm 0.19 in4.8 mm 0.99 in25.1 mm
08:15 AM 65.7°F18.7°C 63.6°F17.6°C 93% 4.0 mph W6.4 kmh W 10.0 mph16.1 kmh 29.80 in1009.1 mb 1.02 in25.9 mm 0.12 in3.0 mm 1.02 in25.9 mm
08:30 AM 64.1°F17.8°C 62.3°F16.8°C 94% 2.0 mph NW3.2 kmh NW 23.0 mph37.0 kmh 29.73 in1006.8 mb 1.04 in26.4 mm 0.08 in2.0 mm 1.04 in26.4 mm
08:45 AM 62.8°F17.1°C 61.1°F16.2°C 94% 2.0 mph NE3.2 kmh NE 15.0 mph24.1 kmh 29.62 in1003.0 mb 0.68 in17.3 mm 0.00 in0.0 mm 1.04 in26.4 mm
09:00 AM 62.4°F16.9°C 61.0°F16.1°C 95% Calm Calm 15.0 mph24.1 kmh 29.64 in1003.7 mb 0.69 in17.5 mm 0.01 in0.3 mm 1.05 in26.7 mm
09:15 AM 62.4°F16.9°C 61.0°F16.1°C 95% Calm Calm 2.0 mph3.2 kmh 29.69 in1005.4 mb 0.06 in1.5 mm 0.00 in0.0 mm 1.05 in26.7 mm
09:30 AM 62.4°F16.9°C 61.3°F16.3°C 96% Calm Calm 12.0 mph19.3 kmh 29.69 in1005.4 mb 0.08 in2.0 mm 0.08 in2.0 mm 1.07 in27.2 mm
09:45 AM 62.2°F16.8°C 61.1°F16.2°C 96% Calm Calm 2.0 mph3.2 kmh 29.74 in1007.1 mb 0.06 in1.5 mm 0.00 in0.0 mm 1.07 in27.2 mm
10:00 AM 61.9°F16.6°C 60.8°F16.0°C 96% 1.0 mph WSW1.6 kmh WSW 7.0 mph11.3 kmh 29.79 in1008.8 mb 0.14 in3.6 mm 0.11 in2.8 mm 1.15 in29.2 mm
10:15 AM 61.7°F16.5°C 60.6°F15.9°C 96% 2.0 mph W3.2 kmh W 14.0 mph22.5 kmh 29.85 in1010.8 mb 0.37 in9.4 mm 0.92 in23.4 mm 1.38 in35.1 mm
10:30 AM 61.5°F16.4°C 60.4°F15.8°C 96% 5.0 mph WNW8.0 kmh WNW 14.0 mph22.5 kmh 29.92 in1013.2 mb 0.43 in10.9 mm 0.24 in6.1 mm 1.44 in36.6 mm
10:45 AM 61.5°F16.4°C 60.4°F15.8°C 96% Calm Calm 4.0 mph6.4 kmh 29.95 in1014.2 mb 0.43 in10.9 mm 0.00 in0.0 mm 1.44 in36.6 mm
11:00 AM 61.6°F16.4°C 60.5°F15.8°C 96% Calm Calm 4.0 mph6.4 kmh 29.93 in1013.5 mb 0.47 in11.9 mm 0.05 in1.3 mm 1.48 in37.6 mm
11:15 AM 61.7°F16.5°C 60.8°F16.0°C 97% Calm Calm 1.0 mph1.6 kmh 29.89 in1012.2 mb 0.35 in8.9 mm 0.00 in0.0 mm 1.48 in37.6 mm
11:30 AM 61.5°F16.4°C 60.6°F15.9°C 97% Calm Calm 4.0 mph6.4 kmh 29.79 in1008.8 mb 0.37 in9.4 mm 0.08 in2.0 mm 1.50 in38.1 mm
11:45 AM 61.2°F16.2°C 60.4°F15.8°C 97% 2.0 mph SE3.2 kmh SE 7.0 mph11.3 kmh 29.75 in1007.5 mb 0.13 in3.3 mm 0.00 in0.0 mm 1.50 in38.1 mm
12:00 PM 60.4°F15.8°C 59.3°F15.2°C 96% 3.0 mph SW4.8 kmh SW 11.0 mph17.7 kmh 29.66 in1004.4 mb 0.14 in3.6 mm 0.01 in0.3 mm 1.51 in38.4 mm
12:15 PM 59.6°F15.3°C 58.5°F14.7°C 96% Calm Calm 8.0 mph12.9 kmh 29.59 in1002.0 mb 0.06 in1.5 mm 0.00 in0.0 mm 1.51 in38.4 mm
12:30 PM 60.4°F15.8°C 59.6°F15.3°C 97% Calm Calm 8.0 mph12.9 kmh 29.67 in1004.7 mb 0.06 in1.5 mm 0.00 in0.0 mm 1.51 in38.4 mm
12:45 PM 61.8°F16.6°C 60.9°F16.1°C 97% Calm Calm 3.0 mph4.8 kmh 29.73 in1006.8 mb 0.02 in0.5 mm 0.00 in0.0 mm 1.51 in38.4 mm
01:00 PM 62.8°F17.1°C 62.2°F16.8°C 98% Calm Calm 3.0 mph4.8 kmh 29.76 in1007.8 mb 0.02 in0.5 mm 0.00 in0.0 mm 1.51 in38.4 mm
01:15 PM 63.3°F17.4°C 62.7°F17.1°C 98% Calm Calm 2.0 mph3.2 kmh 29.76 in1007.8 mb 0.00 in0.0 mm 0.00 in0.0 mm 1.51 in38.4 mm
01:30 PM 63.4°F17.4°C 62.5°F16.9°C 97% Calm Calm 2.0 mph3.2 kmh 29.75 in1007.5 mb 0.00 in0.0 mm 0.00 in0.0 mm 1.51 in38.4 mm
01:45 PM 63.4°F17.4°C 62.5°F16.9°C 97% Calm Calm 4.0 mph6.4 kmh 29.73 in1006.8 mb 0.00 in0.0 mm 0.00 in0.0 mm 1.51 in38.4 mm
02:00 PM 63.8°F17.7°C 63.2°F17.3°C 98% Calm Calm 5.0 mph8.0 kmh 29.73 in1006.8 mb 0.00 in0.0 mm 0.00 in0.0 mm 1.51 in38.4 mm
02:15 PM 64.2°F17.9°C 63.6°F17.6°C 98% Calm Calm 4.0 mph6.4 kmh 29.74 in1007.1 mb 0.00 in0.0 mm 0.00 in0.0 mm 1.51 in38.4 mm
02:30 PM 64.5°F18.1°C 63.6°F17.6°C 97% Calm Calm 4.0 mph6.4 kmh 29.75 in1007.5 mb 0.00 in0.0 mm 0.00 in0.0 mm 1.51 in38.4 mm
02:45 PM 64.8°F18.2°C 64.2°F17.9°C 98% Calm Calm 3.0 mph4.8 kmh 29.75 in1007.5 mb 0.00 in0.0 mm 0.00 in0.0 mm 1.51 in38.4 mm
03:00 PM 65.1°F18.4°C 64.2°F17.9°C 97% Calm Calm 3.0 mph4.8 kmh 29.76 in1007.8 mb 0.00 in0.0 mm 0.00 in0.0 mm 1.51 in38.4 mm
03:15 PM 65.4°F18.6°C 64.5°F18.1°C 97% Calm Calm 2.0 mph3.2 kmh 29.77 in1008.1 mb 0.00 in0.0 mm 0.00 in0.0 mm 1.51 in38.4 mm
03:30 PM 65.8°F18.8°C 64.9°F18.3°C 97% Calm Calm 2.0 mph3.2 kmh 29.79 in1008.8 mb 0.00 in0.0 mm 0.00 in0.0 mm 1.51 in38.4 mm
03:45 PM 66.2°F19.0°C 65.3°F18.5°C 97% 1.0 mph N1.6 kmh N 2.0 mph3.2 kmh 29.79 in1008.8 mb 0.00 in0.0 mm 0.00 in0.0 mm 1.51 in38.4 mm
04:00 PM 66.8°F19.3°C 65.6°F18.7°C 96% 1.0 mph ENE1.6 kmh ENE 4.0 mph6.4 kmh 29.80 in1009.1 mb 0.00 in0.0 mm 0.00 in0.0 mm 1.51 in38.4 mm
04:15 PM 67.6°F19.8°C 65.5°F18.6°C 93% Calm Calm 7.0 mph11.3 kmh 29.80 in1009.1 mb 0.00 in0.0 mm 0.00 in0.0 mm 1.51 in38.4 mm
04:30 PM 68.5°F20.3°C 65.5°F18.6°C 90% 1.0 mph N1.6 kmh N 7.0 mph11.3 kmh 29.81 in1009.5 mb 0.00 in0.0 mm 0.00 in0.0 mm 1.51 in38.4 mm
04:45 PM 69.2°F20.7°C 65.8°F18.8°C 89% Calm Calm 5.0 mph8.0 kmh 29.80 in1009.1 mb 0.00 in0.0 mm 0.00 in0.0 mm 1.51 in38.4 mm
05:00 PM 69.6°F20.9°C 65.6°F18.7°C 87% 4.0 mph NW6.4 kmh NW 5.0 mph8.0 kmh 29.81 in1009.5 mb 0.00 in0.0 mm 0.00 in0.0 mm 1.51 in38.4 mm
05:15 PM 70.1°F21.2°C 66.4°F19.1°C 88% Calm Calm 3.0 mph4.8 kmh 29.82 in1009.8 mb 0.00 in0.0 mm 0.00 in0.0 mm 1.51 in38.4 mm
05:30 PM 70.3°F21.3°C 66.3°F19.1°C 87% Calm Calm 3.0 mph4.8 kmh 29.83 in1010.2 mb 0.00 in0.0 mm 0.00 in0.0 mm 1.51 in38.4 mm
05:45 PM 70.4°F21.3°C 66.4°F19.1°C 87% Calm Calm 1.0 mph1.6 kmh 29.83 in1010.2 mb 0.00 in0.0 mm 0.00 in0.0 mm 1.51 in38.4 mm
06:00 PM 70.3°F21.3°C 66.3°F19.1°C 87% Calm Calm 1.0 mph1.6 kmh 29.83 in1010.2 mb 0.00 in0.0 mm 0.00 in0.0 mm 1.51 in38.4 mm
06:15 PM 70.2°F21.2°C 66.2°F19.0°C 87% Calm Calm 2.0 mph3.2 kmh 29.83 in1010.2 mb 0.00 in0.0 mm 0.00 in0.0 mm 1.51 in38.4 mm
06:30 PM 70.2°F21.2°C 66.2°F19.0°C 87% Calm Calm 2.0 mph3.2 kmh 29.83 in1010.2 mb 0.00 in0.0 mm 0.00 in0.0 mm 1.51 in38.4 mm
06:45 PM 70.3°F21.3°C 66.9°F19.4°C 89% Calm Calm 2.0 mph3.2 kmh 29.83 in1010.2 mb 0.00 in0.0 mm 0.00 in0.0 mm 1.51 in38.4 mm
07:00 PM 70.3°F21.3°C 66.9°F19.4°C 89% Calm Calm 2.0 mph3.2 kmh 29.83 in1010.2 mb 0.00 in0.0 mm 0.00 in0.0 mm 1.51 in38.4 mm
07:15 PM 70.1°F21.2°C 67.0°F19.4°C 90% Calm Calm -- 29.84 in1010.5 mb 0.00 in0.0 mm 0.00 in0.0 mm 1.51 in38.4 mm
07:30 PM 69.7°F20.9°C 66.6°F19.2°C 90% Calm Calm -- 29.84 in1010.5 mb 0.00 in0.0 mm 0.00 in0.0 mm 1.51 in38.4 mm
07:45 PM 69.3°F20.7°C 66.3°F19.1°C 90% Calm Calm -- 29.85 in1010.8 mb 0.00 in0.0 mm 0.00 in0.0 mm 1.51 in38.4 mm
08:00 PM 68.6°F20.3°C 65.6°F18.7°C 90% Calm Calm -- 29.86 in1011.2 mb 0.00 in0.0 mm 0.00 in0.0 mm 1.51 in38.4 mm
08:15 PM 67.8°F19.9°C 64.8°F18.2°C 90% Calm Calm -- 29.86 in1011.2 mb 0.00 in0.0 mm 0.00 in0.0 mm 1.51 in38.4 mm
08:30 PM 67.1°F19.5°C 64.1°F17.8°C 90% Calm Calm -- 29.86 in1011.2 mb 0.00 in0.0 mm 0.00 in0.0 mm 1.51 in38.4 mm
08:45 PM 66.4°F19.1°C 63.7°F17.6°C 91% Calm Calm -- 29.86 in1011.2 mb 0.00 in0.0 mm 0.00 in0.0 mm 1.51 in38.4 mm
09:00 PM 65.7°F18.7°C 63.0°F17.2°C 91% Calm Calm -- 29.87 in1011.5 mb 0.00 in0.0 mm 0.00 in0.0 mm 1.51 in38.4 mm
09:15 PM 65.0°F18.3°C 62.3°F16.8°C 91% Calm Calm -- 29.88 in1011.9 mb 0.00 in0.0 mm 0.00 in0.0 mm 1.51 in38.4 mm
09:30 PM 64.3°F17.9°C 61.9°F16.6°C 92% Calm Calm -- 29.88 in1011.9 mb 0.00 in0.0 mm 0.00 in0.0 mm 1.51 in38.4 mm
09:45 PM 63.9°F17.7°C 61.5°F16.4°C 92% Calm Calm -- 29.88 in1011.9 mb 0.00 in0.0 mm 0.00 in0.0 mm 1.51 in38.4 mm
10:00 PM 63.4°F17.4°C 61.3°F16.3°C 93% Calm Calm -- 29.87 in1011.5 mb 0.00 in0.0 mm 0.00 in0.0 mm 1.51 in38.4 mm
10:15 PM 62.9°F17.2°C 60.9°F16.1°C 93% Calm Calm -- 29.87 in1011.5 mb 0.00 in0.0 mm 0.00 in0.0 mm 1.51 in38.4 mm
10:30 PM 62.4°F16.9°C 60.4°F15.8°C 93% Calm Calm -- 29.88 in1011.9 mb 0.00 in0.0 mm 0.00 in0.0 mm 1.51 in38.4 mm
10:45 PM 62.0°F16.7°C 60.3°F15.7°C 94% Calm Calm -- 29.88 in1011.9 mb 0.00 in0.0 mm 0.00 in0.0 mm 1.51 in38.4 mm
11:00 PM 61.7°F16.5°C 60.0°F15.6°C 94% Calm Calm -- 29.89 in1012.2 mb 0.00 in0.0 mm 0.00 in0.0 mm 1.51 in38.4 mm
11:15 PM 61.5°F16.4°C 59.8°F15.4°C 94% Calm Calm -- 29.89 in1012.2 mb 0.00 in0.0 mm 0.00 in0.0 mm 1.51 in38.4 mm
11:30 PM 61.2°F16.2°C 59.5°F15.3°C 94% Calm Calm -- 29.89 in1012.2 mb 0.00 in0.0 mm 0.00 in0.0 mm 1.51 in38.4 mm
11:45 PM 60.9°F16.1°C 59.5°F15.3°C 95% Calm Calm -- 29.90 in1012.5 mb 0.00 in0.0 mm 0.00 in0.0 mm 1.51 in38.4 mm